Portada
METAR-TAF:

METAR-TAF

Aeroports :

Amman, Jordània

latitud: 31-59N, longitud: 035-59E, altitud: 767 m

Observació

L'informe es va fer fa 27 minuts, a les 06:00 UTC
Vent 4 kt del Nord
Temperatura 22°C
Humitat 46%
Pressió 1015 hPa
Visibilitat: 4500 m
calitja

METAR: OJAM 260600Z 36004KT 4500 HZ NSC 22/10 Q1015 NOSIG

Hora: 09:27 (06:27 UTC)

Pronòstic

L'informe es va fer fa 1 hora i 31 minuts, a les 04:56 UTC
Pronòstic vàlid del 26 a les 06 UTC al 27 a les 12 UTC
Vent 12 kt del Oest/Nord-Oest
Visibilitat: 5000 m
calitja
Probabilitat 30%
l' 26 a les 21 UTC al 27 a les 06 UTC
Vent 3 kt amb direcció variable
Visibilitat: 3000 m
calitja

TAF: OJAM 260456Z 2606/2712 30012KT 5000 HZ NSC PROB30 2621/2706 VRB03KT 3000 HZ

Observacions i pronòstics meteorològics de més de 4000 aeroports (METAR i TAF).

Les estacions disponibles són els punts grocs i vermells al mapa.

Posi el ratolí al punt desitjat per veure el nom de l'estació.

Feu clic per veure les observacions i els pronòstics meteorològics.

Per canviar el mapa: feu clic els botons verds amb una creu de color negre per apropar; al botó verd amb un guió per allunyar la imatge; o en les fletxes verdes per a mapes adjacents.


METAR-TAF: